sensor_id;sensor_type;location;lat;lon;timestamp;pressure;altitude;pressure_sealevel;temperature;humidity
73842;BME280;62184;52.006;5.924;2024-03-29T00:01:20;98345.25;;;15.60;37.69
73842;BME280;62184;52.006;5.924;2024-03-29T00:03:47;98342.09;;;15.55;37.47
73842;BME280;62184;52.006;5.924;2024-03-29T00:06:13;98353.09;;;15.52;37.67
73842;BME280;62184;52.006;5.924;2024-03-29T00:08:39;98350.53;;;15.51;37.88
73842;BME280;62184;52.006;5.924;2024-03-29T00:11:06;98349.22;;;15.45;37.80
73842;BME280;62184;52.006;5.924;2024-03-29T00:13:32;98343.41;;;15.40;38.05
73842;BME280;62184;52.006;5.924;2024-03-29T00:15:59;98331.19;;;15.36;37.82
73842;BME280;62184;52.006;5.924;2024-03-29T00:18:28;98332.28;;;15.33;38.06
73842;BME280;62184;52.006;5.924;2024-03-29T00:20:54;98335.94;;;15.32;38.23
73842;BME280;62184;52.006;5.924;2024-03-29T00:23:21;98335.25;;;15.30;38.04
73842;BME280;62184;52.006;5.924;2024-03-29T00:25:47;98338.38;;;15.36;38.24
73842;BME280;62184;52.006;5.924;2024-03-29T00:28:13;98339.38;;;15.35;38.01
73842;BME280;62184;52.006;5.924;2024-03-29T00:30:40;98335.38;;;15.29;38.50
73842;BME280;62184;52.006;5.924;2024-03-29T00:33:06;98347.97;;;15.28;38.52
73842;BME280;62184;52.006;5.924;2024-03-29T00:35:35;98347.22;;;15.26;38.50
73842;BME280;62184;52.006;5.924;2024-03-29T00:38:02;98346.38;;;15.26;38.56
73842;BME280;62184;52.006;5.924;2024-03-29T00:40:28;98354.44;;;15.26;38.59
73842;BME280;62184;52.006;5.924;2024-03-29T00:42:55;98350.66;;;15.28;38.37
73842;BME280;62184;52.006;5.924;2024-03-29T00:45:21;98347.97;;;15.28;38.35
73842;BME280;62184;52.006;5.924;2024-03-29T00:47:47;98355.28;;;15.26;38.60
73842;BME280;62184;52.006;5.924;2024-03-29T00:50:14;98355.19;;;15.28;38.53
73842;BME280;62184;52.006;5.924;2024-03-29T00:52:43;98354.31;;;15.27;38.36
73842;BME280;62184;52.006;5.924;2024-03-29T00:55:09;98356.28;;;15.25;38.12
73842;BME280;62184;52.006;5.924;2024-03-29T00:57:36;98357.13;;;15.26;38.23
73842;BME280;62184;52.006;5.924;2024-03-29T01:00:03;98365.69;;;15.31;38.48
73842;BME280;62184;52.006;5.924;2024-03-29T01:02:30;98363.69;;;15.33;38.34
73842;BME280;62184;52.006;5.924;2024-03-29T01:04:57;98363.22;;;15.39;38.04
73842;BME280;62184;52.006;5.924;2024-03-29T01:07:23;98365.63;;;15.42;37.94
73842;BME280;62184;52.006;5.924;2024-03-29T01:09:52;98365.63;;;15.42;37.88
73842;BME280;62184;52.006;5.924;2024-03-29T01:12:19;98371.97;;;15.41;37.92
73842;BME280;62184;52.006;5.924;2024-03-29T01:14:45;98373.00;;;15.40;37.76
73842;BME280;62184;52.006;5.924;2024-03-29T01:17:12;98381.06;;;15.40;38.08
73842;BME280;62184;52.006;5.924;2024-03-29T01:19:38;98390.34;;;15.36;37.82
73842;BME280;62184;52.006;5.924;2024-03-29T01:22:05;98379.59;;;15.36;37.78
73842;BME280;62184;52.006;5.924;2024-03-29T01:24:31;98373.25;;;15.37;37.81
73842;BME280;62184;52.006;5.924;2024-03-29T01:27:00;98364.31;;;15.37;37.70
73842;BME280;62184;52.006;5.924;2024-03-29T01:29:27;98361.63;;;15.37;37.61
73842;BME280;62184;52.006;5.924;2024-03-29T01:31:53;98363.47;;;15.36;37.81
73842;BME280;62184;52.006;5.924;2024-03-29T01:34:20;98356.47;;;15.33;37.56
73842;BME280;62184;52.006;5.924;2024-03-29T01:36:46;98355.63;;;15.33;37.75
73842;BME280;62184;52.006;5.924;2024-03-29T01:39:12;98345.72;;;15.33;37.47
73842;BME280;62184;52.006;5.924;2024-03-29T01:41:39;98350.75;;;15.38;37.67
73842;BME280;62184;52.006;5.924;2024-03-29T01:44:08;98343.53;;;15.39;37.54
73842;BME280;62184;52.006;5.924;2024-03-29T01:46:35;98346.78;;;15.42;37.81
73842;BME280;62184;52.006;5.924;2024-03-29T01:49:03;98345.09;;;15.41;37.57
73842;BME280;62184;52.006;5.924;2024-03-29T01:51:31;98340.72;;;15.40;37.92
73842;BME280;62184;52.006;5.924;2024-03-29T01:53:58;98342.91;;;15.35;37.75
73842;BME280;62184;52.006;5.924;2024-03-29T01:56:25;98318.84;;;15.33;38.10
73842;BME280;62184;52.006;5.924;2024-03-29T01:58:55;98313.84;;;15.29;37.79
73842;BME280;62184;52.006;5.924;2024-03-29T02:01:26;98300.28;;;15.30;38.21
73842;BME280;62184;52.006;5.924;2024-03-29T02:03:54;98296.88;;;15.28;37.88
73842;BME280;62184;52.006;5.924;2024-03-29T02:06:22;98282.34;;;15.20;38.39
73842;BME280;62184;52.006;5.924;2024-03-29T02:08:49;98284.59;;;15.15;38.36
73842;BME280;62184;52.006;5.924;2024-03-29T02:11:18;98284.00;;;15.11;38.55
73842;BME280;62184;52.006;5.924;2024-03-29T02:13:46;98300.13;;;15.11;38.25
73842;BME280;62184;52.006;5.924;2024-03-29T02:16:13;98296.69;;;15.09;38.61
73842;BME280;62184;52.006;5.924;2024-03-29T02:18:42;98304.03;;;15.07;38.46
73842;BME280;62184;52.006;5.924;2024-03-29T02:21:09;98312.50;;;15.03;38.35
73842;BME280;62184;52.006;5.924;2024-03-29T02:23:37;98299.91;;;15.03;38.44
73842;BME280;62184;52.006;5.924;2024-03-29T02:26:12;98301.75;;;15.03;38.83
73842;BME280;62184;52.006;5.924;2024-03-29T02:28:38;98313.47;;;15.02;38.88
73842;BME280;62184;52.006;5.924;2024-03-29T02:31:05;98327.53;;;15.05;38.72
73842;BME280;62184;52.006;5.924;2024-03-29T02:33:31;98332.06;;;15.05;38.72
73842;BME280;62184;52.006;5.924;2024-03-29T02:35:58;98330.91;;;15.07;38.67
73842;BME280;62184;52.006;5.924;2024-03-29T02:38:24;98338.50;;;15.13;38.74
73842;BME280;62184;52.006;5.924;2024-03-29T02:40:51;98343.59;;;15.16;38.46
73842;BME280;62184;52.006;5.924;2024-03-29T02:43:20;98345.44;;;15.16;38.93
73842;BME280;62184;52.006;5.924;2024-03-29T02:45:46;98350.56;;;15.19;38.75
73842;BME280;62184;52.006;5.924;2024-03-29T02:48:13;98348.31;;;15.24;38.72
73842;BME280;62184;52.006;5.924;2024-03-29T02:50:39;98338.19;;;15.27;38.54
73842;BME280;62184;52.006;5.924;2024-03-29T02:53:05;98343.56;;;15.27;38.14
73842;BME280;62184;52.006;5.924;2024-03-29T02:55:32;98342.47;;;15.30;38.57
73842;BME280;62184;52.006;5.924;2024-03-29T02:57:58;98340.22;;;15.35;38.29
73842;BME280;62184;52.006;5.924;2024-03-29T03:00:27;98349.47;;;15.42;38.34
73842;BME280;62184;52.006;5.924;2024-03-29T03:02:54;98343.84;;;15.45;37.95
73842;BME280;62184;52.006;5.924;2024-03-29T03:05:20;98344.59;;;15.47;38.28
73842;BME280;62184;52.006;5.924;2024-03-29T03:07:46;98337.94;;;15.51;38.01
73842;BME280;62184;52.006;5.924;2024-03-29T03:10:13;98339.22;;;15.47;38.44
73842;BME280;62184;52.006;5.924;2024-03-29T03:12:40;98333.81;;;15.47;38.52
73842;BME280;62184;52.006;5.924;2024-03-29T03:15:07;98330.72;;;15.52;38.29
73842;BME280;62184;52.006;5.924;2024-03-29T03:17:36;98330.59;;;15.53;38.21
73842;BME280;62184;52.006;5.924;2024-03-29T03:20:03;98324.50;;;15.51;38.23
73842;BME280;62184;52.006;5.924;2024-03-29T03:22:30;98331.59;;;15.52;38.28
73842;BME280;62184;52.006;5.924;2024-03-29T03:24:57;98349.69;;;15.50;38.39
73842;BME280;62184;52.006;5.924;2024-03-29T03:27:23;98353.97;;;15.53;38.42
73842;BME280;62184;52.006;5.924;2024-03-29T03:29:50;98357.38;;;15.55;38.53
73842;BME280;62184;52.006;5.924;2024-03-29T03:32:16;98346.13;;;15.50;38.31
73842;BME280;62184;52.006;5.924;2024-03-29T03:34:45;98352.13;;;15.53;38.40
73842;BME280;62184;52.006;5.924;2024-03-29T03:37:11;98355.44;;;15.57;38.68
73842;BME280;62184;52.006;5.924;2024-03-29T03:39:38;98366.03;;;15.58;38.48
73842;BME280;62184;52.006;5.924;2024-03-29T03:42:05;98354.94;;;15.63;38.26
73842;BME280;62184;52.006;5.924;2024-03-29T03:44:31;98340.63;;;15.62;38.58
73842;BME280;62184;52.006;5.924;2024-03-29T03:46:57;98350.97;;;15.67;38.10
73842;BME280;62184;52.006;5.924;2024-03-29T03:49:24;98340.94;;;15.69;38.29
73842;BME280;62184;52.006;5.924;2024-03-29T03:51:53;98344.50;;;15.69;38.29
73842;BME280;62184;52.006;5.924;2024-03-29T03:54:20;98357.94;;;15.69;38.51
73842;BME280;62184;52.006;5.924;2024-03-29T03:56:46;98354.16;;;15.72;38.71
73842;BME280;62184;52.006;5.924;2024-03-29T03:59:14;98366.88;;;15.70;38.87
73842;BME280;62184;52.006;5.924;2024-03-29T04:01:40;98366.88;;;15.70;39.08
73842;BME280;62184;52.006;5.924;2024-03-29T04:04:07;98365.16;;;15.69;39.40
73842;BME280;62184;52.006;5.924;2024-03-29T04:06:33;98373.75;;;15.63;39.73
73842;BME280;62184;52.006;5.924;2024-03-29T04:09:03;98374.84;;;15.60;39.90
73842;BME280;62184;52.006;5.924;2024-03-29T04:11:30;98379.47;;;15.58;39.96
73842;BME280;62184;52.006;5.924;2024-03-29T04:13:56;98387.34;;;15.61;40.05
73842;BME280;62184;52.006;5.924;2024-03-29T04:16:22;98384.88;;;15.58;40.34
73842;BME280;62184;52.006;5.924;2024-03-29T04:18:49;98389.38;;;15.58;40.86
73842;BME280;62184;52.006;5.924;2024-03-29T04:21:15;98378.63;;;15.58;41.18
73842;BME280;62184;52.006;5.924;2024-03-29T04:23:42;98387.22;;;15.52;41.36
73842;BME280;62184;52.006;5.924;2024-03-29T04:26:11;98389.06;;;15.51;41.62
73842;BME280;62184;52.006;5.924;2024-03-29T04:28:37;98381.00;;;15.51;42.20
73842;BME280;62184;52.006;5.924;2024-03-29T04:31:03;98385.78;;;15.48;41.93
73842;BME280;62184;52.006;5.924;2024-03-29T04:33:30;98380.06;;;15.41;42.28
73842;BME280;62184;52.006;5.924;2024-03-29T04:35:58;98380.81;;;15.32;42.18
73842;BME280;62184;52.006;5.924;2024-03-29T04:38:26;98376.44;;;15.31;42.31
73842;BME280;62184;52.006;5.924;2024-03-29T04:40:54;98386.56;;;15.39;42.45
73842;BME280;62184;52.006;5.924;2024-03-29T04:43:25;98401.19;;;15.46;42.53
73842;BME280;62184;52.006;5.924;2024-03-29T04:46:01;98403.91;;;15.46;42.61
73842;BME280;62184;52.006;5.924;2024-03-29T04:48:28;98387.63;;;15.47;42.48
73842;BME280;62184;52.006;5.924;2024-03-29T04:50:54;98389.78;;;15.53;42.97
73842;BME280;62184;52.006;5.924;2024-03-29T04:53:22;98380.75;;;15.54;42.55
73842;BME280;62184;52.006;5.924;2024-03-29T04:55:53;98398.47;;;15.57;42.95
73842;BME280;62184;52.006;5.924;2024-03-29T04:58:19;98385.03;;;15.57;43.03
73842;BME280;62184;52.006;5.924;2024-03-29T05:00:49;98386.56;;;15.59;43.51
73842;BME280;62184;52.006;5.924;2024-03-29T05:03:17;98396.28;;;15.62;43.53
73842;BME280;62184;52.006;5.924;2024-03-29T05:05:44;98406.66;;;15.55;43.48
73842;BME280;62184;52.006;5.924;2024-03-29T05:08:11;98403.03;;;15.45;43.76
73842;BME280;62184;52.006;5.924;2024-03-29T05:10:38;98397.66;;;15.45;44.18
73842;BME280;62184;52.006;5.924;2024-03-29T05:13:05;98397.53;;;15.47;44.38
73842;BME280;62184;52.006;5.924;2024-03-29T05:15:31;98403.28;;;15.42;44.27
73842;BME280;62184;52.006;5.924;2024-03-29T05:18:01;98411.63;;;15.39;44.49
73842;BME280;62184;52.006;5.924;2024-03-29T05:20:27;98400.88;;;15.39;44.92
73842;BME280;62184;52.006;5.924;2024-03-29T05:22:53;98422.63;;;15.36;45.02
73842;BME280;62184;52.006;5.924;2024-03-29T05:25:20;98412.72;;;15.37;45.17
73842;BME280;62184;52.006;5.924;2024-03-29T05:27:46;98407.59;;;15.33;45.34
73842;BME280;62184;52.006;5.924;2024-03-29T05:30:13;98416.41;;;15.36;45.02
73842;BME280;62184;52.006;5.924;2024-03-29T05:32:40;98409.19;;;15.36;45.49
73842;BME280;62184;52.006;5.924;2024-03-29T05:35:09;98409.69;;;15.30;45.44
73842;BME280;62184;52.006;5.924;2024-03-29T05:37:35;98421.69;;;15.26;45.73
73842;BME280;62184;52.006;5.924;2024-03-29T05:40:03;98423.91;;;15.21;46.02
73842;BME280;62184;52.006;5.924;2024-03-29T05:42:31;98427.56;;;15.20;45.70
73842;BME280;62184;52.006;5.924;2024-03-29T05:44:58;98426.09;;;15.16;46.06
73842;BME280;62184;52.006;5.924;2024-03-29T05:47:25;98425.25;;;15.15;46.14
73842;BME280;62184;52.006;5.924;2024-03-29T05:49:51;98425.84;;;15.19;46.19
73842;BME280;62184;52.006;5.924;2024-03-29T05:52:22;98431.00;;;15.22;46.40
73842;BME280;62184;52.006;5.924;2024-03-29T05:54:49;98431.84;;;15.22;46.14
73842;BME280;62184;52.006;5.924;2024-03-29T05:57:15;98435.75;;;15.18;46.52
73842;BME280;62184;52.006;5.924;2024-03-29T05:59:42;98436.72;;;15.17;46.45
73842;BME280;62184;52.006;5.924;2024-03-29T06:02:08;98432.22;;;15.18;46.64
73842;BME280;62184;52.006;5.924;2024-03-29T06:04:34;98439.69;;;15.14;46.58
73842;BME280;62184;52.006;5.924;2024-03-29T06:07:01;98427.47;;;15.10;47.04
73842;BME280;62184;52.006;5.924;2024-03-29T06:09:32;98434.56;;;15.11;47.17
73842;BME280;62184;52.006;5.924;2024-03-29T06:11:58;98439.94;;;15.11;46.87
73842;BME280;62184;52.006;5.924;2024-03-29T06:14:24;98444.66;;;15.30;46.63
73842;BME280;62184;52.006;5.924;2024-03-29T06:16:51;98456.13;;;15.32;46.74
73842;BME280;62184;52.006;5.924;2024-03-29T06:19:18;98463.59;;;15.40;47.00
73842;BME280;62184;52.006;5.924;2024-03-29T06:21:44;98455.59;;;15.49;46.66
73842;BME280;62184;52.006;5.924;2024-03-29T06:24:11;98455.22;;;15.54;46.56
73842;BME280;62184;52.006;5.924;2024-03-29T06:26:41;98457.91;;;15.54;47.00
73842;BME280;62184;52.006;5.924;2024-03-29T06:29:08;98450.19;;;15.60;46.66
73842;BME280;62184;52.006;5.924;2024-03-29T06:31:34;98444.19;;;15.68;46.66
73842;BME280;62184;52.006;5.924;2024-03-29T06:34:01;98437.81;;;15.69;46.63
73842;BME280;62184;52.006;5.924;2024-03-29T06:36:27;98439.41;;;15.72;46.79
73842;BME280;62184;52.006;5.924;2024-03-29T06:38:54;98448.66;;;15.79;46.77
73842;BME280;62184;52.006;5.924;2024-03-29T06:41:20;98453.06;;;15.80;46.84
73842;BME280;62184;52.006;5.924;2024-03-29T06:43:49;98457.13;;;15.74;46.67
73842;BME280;62184;52.006;5.924;2024-03-29T06:46:16;98464.22;;;15.75;46.63
73842;BME280;62184;52.006;5.924;2024-03-29T06:48:42;98453.84;;;15.71;46.80
73842;BME280;62184;52.006;5.924;2024-03-29T06:51:09;98455.44;;;15.73;46.87
73842;BME280;62184;52.006;5.924;2024-03-29T06:53:36;98442.84;;;15.74;47.17
73842;BME280;62184;52.006;5.924;2024-03-29T06:56:02;98449.31;;;15.71;46.77
73842;BME280;62184;52.006;5.924;2024-03-29T06:58:29;98443.81;;;15.73;46.86
73842;BME280;62184;52.006;5.924;2024-03-29T07:00:58;98444.38;;;15.76;47.12
73842;BME280;62184;52.006;5.924;2024-03-29T07:03:24;98441.56;;;15.78;47.10
73842;BME280;62184;52.006;5.924;2024-03-29T07:05:51;98436.44;;;15.75;47.07
73842;BME280;62184;52.006;5.924;2024-03-29T07:08:17;98409.53;;;15.75;47.16
73842;BME280;62184;52.006;5.924;2024-03-29T07:10:44;98409.41;;;15.76;47.12
73842;BME280;62184;52.006;5.924;2024-03-29T07:13:10;98423.34;;;15.81;47.24
73842;BME280;62184;52.006;5.924;2024-03-29T07:15:36;98439.94;;;15.86;47.13
73842;BME280;62184;52.006;5.924;2024-03-29T07:18:06;98429.78;;;15.90;47.10
73842;BME280;62184;52.006;5.924;2024-03-29T07:20:33;98439.69;;;15.89;47.41
73842;BME280;62184;52.006;5.924;2024-03-29T07:22:59;98446.06;;;15.88;47.23
73842;BME280;62184;52.006;5.924;2024-03-29T07:25:25;98446.38;;;15.95;47.58
73842;BME280;62184;52.006;5.924;2024-03-29T07:27:52;98452.63;;;15.95;47.25
73842;BME280;62184;52.006;5.924;2024-03-29T07:30:18;98460.72;;;15.95;47.30
73842;BME280;62184;52.006;5.924;2024-03-29T07:32:45;98459.44;;;15.99;47.26
73842;BME280;62184;52.006;5.924;2024-03-29T07:35:14;98459.44;;;15.99;47.22
73842;BME280;62184;52.006;5.924;2024-03-29T07:37:41;98461.16;;;16.00;47.71
73842;BME280;62184;52.006;5.924;2024-03-29T07:40:08;98458.53;;;16.10;47.69
73842;BME280;62184;52.006;5.924;2024-03-29T07:42:35;98460.19;;;16.22;47.69
73842;BME280;62184;52.006;5.924;2024-03-29T07:45:01;98467.34;;;16.33;47.24
73842;BME280;62184;52.006;5.924;2024-03-29T07:47:28;98477.59;;;16.39;47.30
73842;BME280;62184;52.006;5.924;2024-03-29T07:49:54;98482.56;;;16.43;47.60
73842;BME280;62184;52.006;5.924;2024-03-29T07:52:24;98479.94;;;16.53;47.73
73842;BME280;62184;52.006;5.924;2024-03-29T07:54:50;98474.69;;;16.52;47.12
73842;BME280;62184;52.006;5.924;2024-03-29T07:57:17;98471.00;;;16.53;47.11
73842;BME280;62184;52.006;5.924;2024-03-29T07:59:43;98476.00;;;16.57;46.85
73842;BME280;62184;52.006;5.924;2024-03-29T08:02:09;98468.63;;;16.59;46.79
73842;BME280;62184;52.006;5.924;2024-03-29T08:04:36;98472.16;;;16.60;46.81
73842;BME280;62184;52.006;5.924;2024-03-29T08:07:02;98480.53;;;16.57;46.70
73842;BME280;62184;52.006;5.924;2024-03-29T08:09:32;98474.13;;;16.58;46.87
73842;BME280;62184;52.006;5.924;2024-03-29T08:11:58;98474.88;;;16.60;46.83
73842;BME280;62184;52.006;5.924;2024-03-29T08:14:25;98472.94;;;16.62;46.59
73842;BME280;62184;52.006;5.924;2024-03-29T08:16:51;98471.41;;;16.48;46.85
73842;BME280;62184;52.006;5.924;2024-03-29T08:19:17;98484.69;;;16.40;47.39
73842;BME280;62184;52.006;5.924;2024-03-29T08:21:44;98483.69;;;16.41;47.25
73842;BME280;62184;52.006;5.924;2024-03-29T08:24:10;98471.94;;;16.42;47.14
73842;BME280;62184;52.006;5.924;2024-03-29T08:26:39;98477.19;;;16.43;47.48
73842;BME280;62184;52.006;5.924;2024-03-29T08:29:06;98490.28;;;16.48;47.68
73842;BME280;62184;52.006;5.924;2024-03-29T08:31:32;98478.47;;;16.49;47.10
73842;BME280;62184;52.006;5.924;2024-03-29T08:33:58;98472.72;;;16.54;47.75
73842;BME280;62184;52.006;5.924;2024-03-29T08:36:25;98463.88;;;16.63;47.71
73842;BME280;62184;52.006;5.924;2024-03-29T08:38:51;98453.53;;;16.68;47.70
73842;BME280;62184;52.006;5.924;2024-03-29T08:41:18;98452.28;;;16.72;47.63
73842;BME280;62184;52.006;5.924;2024-03-29T08:43:47;98469.75;;;16.77;47.46
73842;BME280;62184;52.006;5.924;2024-03-29T08:46:13;98475.06;;;16.89;47.89
73842;BME280;62184;52.006;5.924;2024-03-29T08:48:39;98478.34;;;17.02;47.64
73842;BME280;62184;52.006;5.924;2024-03-29T08:51:06;98475.31;;;17.16;47.36
73842;BME280;62184;52.006;5.924;2024-03-29T08:53:32;98475.31;;;17.26;47.16
73842;BME280;62184;52.006;5.924;2024-03-29T08:55:59;98473.78;;;17.33;47.43
73842;BME280;62184;52.006;5.924;2024-03-29T08:58:25;98455.75;;;17.43;47.21
73842;BME280;62184;52.006;5.924;2024-03-29T09:00:57;98466.47;;;17.73;46.00
73842;BME280;62184;52.006;5.924;2024-03-29T09:03:24;98470.16;;;17.63;46.12
73842;BME280;62184;52.006;5.924;2024-03-29T09:05:51;98470.56;;;17.58;46.29
73842;BME280;62184;52.006;5.924;2024-03-29T09:08:18;98467.31;;;17.64;46.14
73842;BME280;62184;52.006;5.924;2024-03-29T09:10:44;98478.69;;;17.68;45.91
73842;BME280;62184;52.006;5.924;2024-03-29T09:13:11;98479.16;;;17.82;45.33
73842;BME280;62184;52.006;5.924;2024-03-29T09:15:37;98487.78;;;17.67;45.47
73842;BME280;62184;52.006;5.924;2024-03-29T09:18:07;98491.31;;;17.67;45.66
73842;BME280;62184;52.006;5.924;2024-03-29T09:20:33;98490.06;;;17.81;46.33
73842;BME280;62184;52.006;5.924;2024-03-29T09:23:00;98491.75;;;17.91;45.87
73842;BME280;62184;52.006;5.924;2024-03-29T09:25:26;98482.53;;;18.04;46.05
73842;BME280;62184;52.006;5.924;2024-03-29T09:27:52;98469.31;;;18.10;45.46
73842;BME280;62184;52.006;5.924;2024-03-29T09:30:19;98470.88;;;18.13;44.82
73842;BME280;62184;52.006;5.924;2024-03-29T09:32:46;98471.41;;;18.26;45.83
73842;BME280;62184;52.006;5.924;2024-03-29T09:35:15;98468.00;;;18.53;45.40
73842;BME280;62184;52.006;5.924;2024-03-29T09:37:41;98478.91;;;18.70;44.92
73842;BME280;62184;52.006;5.924;2024-03-29T09:40:12;98483.16;;;18.83;44.82
73842;BME280;62184;52.006;5.924;2024-03-29T09:42:39;98481.13;;;19.22;45.15
73842;BME280;62184;52.006;5.924;2024-03-29T09:45:07;98489.81;;;19.70;44.41
73842;BME280;62184;52.006;5.924;2024-03-29T09:47:37;98495.56;;;20.03;43.33
73842;BME280;62184;52.006;5.924;2024-03-29T09:50:05;98484.44;;;20.06;42.21
73842;BME280;62184;52.006;5.924;2024-03-29T09:52:37;98484.72;;;20.03;42.09
73842;BME280;62184;52.006;5.924;2024-03-29T09:55:06;98506.63;;;20.09;41.73
73842;BME280;62184;52.006;5.924;2024-03-29T09:57:33;98496.19;;;20.14;42.05
73842;BME280;62184;52.006;5.924;2024-03-29T10:00:00;98504.13;;;20.26;41.93
73842;BME280;62184;52.006;5.924;2024-03-29T10:02:28;98509.56;;;20.26;41.15
73842;BME280;62184;52.006;5.924;2024-03-29T10:05:00;98506.66;;;20.27;41.74
73842;BME280;62184;52.006;5.924;2024-03-29T10:07:31;98518.56;;;20.34;41.08
73842;BME280;62184;52.006;5.924;2024-03-29T10:10:01;98508.88;;;20.14;40.84
73842;BME280;62184;52.006;5.924;2024-03-29T10:12:28;98513.53;;;19.86;41.37
73842;BME280;62184;52.006;5.924;2024-03-29T10:14:57;98509.88;;;19.77;40.86
73842;BME280;62184;52.006;5.924;2024-03-29T10:17:24;98507.50;;;19.74;40.05
73842;BME280;62184;52.006;5.924;2024-03-29T10:19:50;98512.63;;;19.68;40.83
73842;BME280;62184;52.006;5.924;2024-03-29T10:22:17;98506.06;;;19.70;40.44
73842;BME280;62184;52.006;5.924;2024-03-29T10:24:43;98497.03;;;19.79;40.57
73842;BME280;62184;52.006;5.924;2024-03-29T10:27:14;98498.34;;;19.93;40.62
73842;BME280;62184;52.006;5.924;2024-03-29T10:29:40;98501.47;;;19.98;40.77
73842;BME280;62184;52.006;5.924;2024-03-29T10:32:07;98495.97;;;20.08;40.29
73842;BME280;62184;52.006;5.924;2024-03-29T10:34:33;98509.75;;;20.32;40.43
73842;BME280;62184;52.006;5.924;2024-03-29T10:37:01;98520.75;;;20.48;40.29
73842;BME280;62184;52.006;5.924;2024-03-29T10:39:29;98505.69;;;20.54;39.94
73842;BME280;62184;52.006;5.924;2024-03-29T10:41:56;98505.94;;;20.43;39.65
73842;BME280;62184;52.006;5.924;2024-03-29T10:44:25;98509.84;;;20.40;40.14
73842;BME280;62184;52.006;5.924;2024-03-29T10:46:55;98505.84;;;20.52;40.01
73842;BME280;62184;52.006;5.924;2024-03-29T10:49:23;98513.88;;;20.62;39.76
73842;BME280;62184;52.006;5.924;2024-03-29T10:51:50;98504.31;;;20.50;40.03
73842;BME280;62184;52.006;5.924;2024-03-29T10:54:19;98506.53;;;20.54;39.89
73842;BME280;62184;52.006;5.924;2024-03-29T10:56:47;98496.13;;;20.68;39.80
73842;BME280;62184;52.006;5.924;2024-03-29T10:59:34;98492.38;;;20.94;39.49
73842;BME280;62184;52.006;5.924;2024-03-29T11:02:12;98493.25;;;21.21;38.76
73842;BME280;62184;52.006;5.924;2024-03-29T11:04:45;98492.25;;;21.30;38.81
73842;BME280;62184;52.006;5.924;2024-03-29T11:07:18;98513.69;;;21.33;38.15
73842;BME280;62184;52.006;5.924;2024-03-29T11:09:49;98513.69;;;21.33;38.33
73842;BME280;62184;52.006;5.924;2024-03-29T11:12:23;98518.91;;;21.34;37.95
73842;BME280;62184;52.006;5.924;2024-03-29T11:14:59;98510.53;;;21.20;37.84
73842;BME280;62184;52.006;5.924;2024-03-29T11:17:29;98519.53;;;21.20;38.02
73842;BME280;62184;52.006;5.924;2024-03-29T11:19:55;98544.63;;;21.48;37.80
73842;BME280;62184;52.006;5.924;2024-03-29T11:22:23;98540.97;;;21.65;37.00
73842;BME280;62184;52.006;5.924;2024-03-29T11:24:50;98530.84;;;21.76;37.12
73842;BME280;62184;52.006;5.924;2024-03-29T11:27:17;98520.00;;;21.92;36.81
73842;BME280;62184;52.006;5.924;2024-03-29T11:29:48;98523.44;;;22.18;36.45
73842;BME280;62184;52.006;5.924;2024-03-29T11:32:37;98506.09;;;22.11;36.08
73842;BME280;62184;52.006;5.924;2024-03-29T11:35:04;98508.94;;;21.93;36.17
73842;BME280;62184;52.006;5.924;2024-03-29T11:37:31;98506.72;;;21.81;36.43
73842;BME280;62184;52.006;5.924;2024-03-29T11:39:59;98498.94;;;21.94;36.79
73842;BME280;62184;52.006;5.924;2024-03-29T11:42:43;98516.66;;;22.22;36.24
73842;BME280;62184;52.006;5.924;2024-03-29T11:45:10;98510.19;;;22.31;35.83
73842;BME280;62184;52.006;5.924;2024-03-29T11:47:40;98523.78;;;22.23;35.39
73842;BME280;62184;52.006;5.924;2024-03-29T11:50:07;98528.53;;;22.21;36.11
73842;BME280;62184;52.006;5.924;2024-03-29T11:52:37;98539.59;;;22.44;35.74
73842;BME280;62184;52.006;5.924;2024-03-29T11:55:05;98548.66;;;22.61;35.68
73842;BME280;62184;52.006;5.924;2024-03-29T11:57:31;98543.56;;;22.74;34.99
73842;BME280;62184;52.006;5.924;2024-03-29T11:59:58;98545.94;;;22.93;34.86
73842;BME280;62184;52.006;5.924;2024-03-29T12:02:24;98535.22;;;22.75;33.86
73842;BME280;62184;52.006;5.924;2024-03-29T12:04:53;98536.56;;;22.71;34.50
73842;BME280;62184;52.006;5.924;2024-03-29T12:07:20;98540.84;;;22.66;34.52
73842;BME280;62184;52.006;5.924;2024-03-29T12:09:46;98548.16;;;22.57;34.12
73842;BME280;62184;52.006;5.924;2024-03-29T12:12:13;98534.22;;;22.68;34.70
73842;BME280;62184;52.006;5.924;2024-03-29T12:14:39;98544.25;;;22.76;34.20
73842;BME280;62184;52.006;5.924;2024-03-29T12:17:09;98553.25;;;22.76;33.70
73842;BME280;62184;52.006;5.924;2024-03-29T12:19:36;98554.09;;;22.77;33.43
73842;BME280;62184;52.006;5.924;2024-03-29T12:22:05;98557.47;;;22.95;34.11
73842;BME280;62184;52.006;5.924;2024-03-29T12:24:32;98559.84;;;23.23;33.86
73842;BME280;62184;52.006;5.924;2024-03-29T12:26:59;98569.13;;;23.44;33.31
73842;BME280;62184;52.006;5.924;2024-03-29T12:29:25;98562.75;;;23.68;33.16
73842;BME280;62184;52.006;5.924;2024-03-29T12:31:56;98558.06;;;23.93;32.29
73842;BME280;62184;52.006;5.924;2024-03-29T12:34:24;98559.22;;;23.99;31.65
73842;BME280;62184;52.006;5.924;2024-03-29T12:36:51;98558.19;;;24.00;31.25
73842;BME280;62184;52.006;5.924;2024-03-29T12:39:21;98569.13;;;24.00;31.41
73842;BME280;62184;52.006;5.924;2024-03-29T12:41:47;98565.41;;;23.84;30.98
73842;BME280;62184;52.006;5.924;2024-03-29T12:44:14;98561.31;;;23.80;31.50
73842;BME280;62184;52.006;5.924;2024-03-29T12:46:40;98567.81;;;23.79;31.17
73842;BME280;62184;52.006;5.924;2024-03-29T12:49:10;98562.22;;;23.73;31.88
73842;BME280;62184;52.006;5.924;2024-03-29T12:51:37;98570.22;;;23.74;31.81
73842;BME280;62184;52.006;5.924;2024-03-29T12:54:06;98571.75;;;23.77;31.43
73842;BME280;62184;52.006;5.924;2024-03-29T12:56:36;98568.38;;;23.67;31.36
73842;BME280;62184;52.006;5.924;2024-03-29T12:59:02;98566.09;;;23.78;31.97
73842;BME280;62184;52.006;5.924;2024-03-29T13:01:29;98574.00;;;24.04;30.97